sensor_id;sensor_type;location;lat;lon;timestamp;pressure;altitude;pressure_sealevel;temperature;humidity
70015;BME280;57358;51.094;6.760;2023-01-04T00:02:20;101693.56;;;5.84;100.00
70015;BME280;57358;51.094;6.760;2023-01-04T00:04:47;101843.19;;;6.79;100.00
70015;BME280;57358;51.094;6.760;2023-01-04T00:07:13;101779.44;;;6.45;100.00
70015;BME280;57358;51.094;6.760;2023-01-04T00:09:40;101830.97;;;6.82;100.00
70015;BME280;57358;51.094;6.760;2023-01-04T00:12:06;101771.47;;;6.54;100.00
70015;BME280;57358;51.094;6.760;2023-01-04T00:14:32;101814.28;;;6.89;100.00
70015;BME280;57358;51.094;6.760;2023-01-04T00:16:59;101820.31;;;6.92;100.00
70015;BME280;57358;51.094;6.760;2023-01-04T00:19:25;101812.41;;;6.95;100.00
70015;BME280;57358;51.094;6.760;2023-01-04T00:21:52;101716.06;;;6.41;100.00
70015;BME280;57358;51.094;6.760;2023-01-04T00:24:19;101796.69;;;7.00;100.00
70015;BME280;57358;51.094;6.760;2023-01-04T00:26:45;101801.78;;;7.06;100.00
70015;BME280;57358;51.094;6.760;2023-01-04T00:29:12;101800.03;;;7.07;100.00
70015;BME280;57358;51.094;6.760;2023-01-04T00:31:39;101687.44;;;6.38;100.00
70015;BME280;57358;51.094;6.760;2023-01-04T00:34:06;101795.53;;;7.13;100.00
70015;BME280;57358;51.094;6.760;2023-01-04T00:36:33;101788.63;;;7.12;100.00
70015;BME280;57358;51.094;6.760;2023-01-04T00:39:00;101688.84;;;6.56;100.00
70015;BME280;57358;51.094;6.760;2023-01-04T00:44:28;101700.53;;;6.80;100.00
70015;BME280;57358;51.094;6.760;2023-01-04T00:46:55;101772.69;;;7.25;100.00
70015;BME280;57358;51.094;6.760;2023-01-04T00:49:22;101776.84;;;7.33;100.00
70015;BME280;57358;51.094;6.760;2023-01-04T00:51:49;101753.63;;;7.19;100.00
70015;BME280;57358;51.094;6.760;2023-01-04T00:54:16;101593.75;;;6.30;100.00
70015;BME280;57358;51.094;6.760;2023-01-04T00:56:43;101743.25;;;7.18;100.00
70015;BME280;57358;51.094;6.760;2023-01-04T00:59:14;101646.19;;;6.58;100.00
70015;BME280;57358;51.094;6.760;2023-01-04T01:01:44;101760.28;;;7.36;100.00
70015;BME280;57358;51.094;6.760;2023-01-04T01:04:13;101754.28;;;7.31;100.00
70015;BME280;57358;51.094;6.760;2023-01-04T01:06:40;101572.28;;;6.17;100.00
70015;BME280;57358;51.094;6.760;2023-01-04T01:09:08;101691.53;;;6.95;100.00
70015;BME280;57358;51.094;6.760;2023-01-04T01:11:35;101663.25;;;6.73;100.00
70015;BME280;57358;51.094;6.760;2023-01-04T01:14:03;101698.25;;;7.05;100.00
70015;BME280;57358;51.094;6.760;2023-01-04T01:16:30;101729.97;;;7.29;100.00
70015;BME280;57358;51.094;6.760;2023-01-04T01:19:16;101719.53;;;7.27;100.00
70015;BME280;57358;51.094;6.760;2023-01-04T01:21:43;101709.16;;;7.26;100.00
70015;BME280;57358;51.094;6.760;2023-01-04T01:24:16;101640.44;;;6.83;100.00
70015;BME280;57358;51.094;6.760;2023-01-04T01:26:44;101655.00;;;6.95;100.00
70015;BME280;57358;51.094;6.760;2023-01-04T01:29:11;101698.72;;;7.26;100.00
70015;BME280;57358;51.094;6.760;2023-01-04T01:31:40;101686.59;;;7.22;100.00
70015;BME280;57358;51.094;6.760;2023-01-04T01:34:07;101596.47;;;6.66;100.00
70015;BME280;57358;51.094;6.760;2023-01-04T01:36:33;101593.97;;;6.62;100.00
70015;BME280;57358;51.094;6.760;2023-01-04T01:39:00;101673.50;;;7.23;100.00
70015;BME280;57358;51.094;6.760;2023-01-04T01:41:30;101672.69;;;7.21;100.00
70015;BME280;57358;51.094;6.760;2023-01-04T01:44:02;101671.84;;;7.21;100.00
70015;BME280;57358;51.094;6.760;2023-01-04T01:46:48;101609.19;;;6.82;100.00
70015;BME280;57358;51.094;6.760;2023-01-04T01:49:31;101658.75;;;7.22;100.00
70015;BME280;57358;51.094;6.760;2023-01-04T01:52:02;101661.34;;;7.24;100.00
70015;BME280;57358;51.094;6.760;2023-01-04T01:54:34;101647.38;;;7.25;100.00
70015;BME280;57358;51.094;6.760;2023-01-04T01:57:04;101647.34;;;7.26;100.00
70015;BME280;57358;51.094;6.760;2023-01-04T01:59:33;101651.63;;;7.29;100.00
70015;BME280;57358;51.094;6.760;2023-01-04T02:02:00;101590.72;;;6.91;100.00
70015;BME280;57358;51.094;6.760;2023-01-04T02:04:28;101650.81;;;7.27;100.00
70015;BME280;57358;51.094;6.760;2023-01-04T02:06:56;101653.41;;;7.27;100.00
70015;BME280;57358;51.094;6.760;2023-01-04T02:09:23;101486.84;;;6.32;100.00
70015;BME280;57358;51.094;6.760;2023-01-04T02:11:50;101402.78;;;5.80;100.00
70015;BME280;57358;51.094;6.760;2023-01-04T02:14:18;101574.22;;;6.89;100.00
70015;BME280;57358;51.094;6.760;2023-01-04T02:22:57;101639.38;;;7.31;100.00
70015;BME280;57358;51.094;6.760;2023-01-04T02:31:37;101621.22;;;7.28;100.00
70015;BME280;57358;51.094;6.760;2023-01-04T02:34:42;101615.06;;;7.29;100.00
70015;BME280;57358;51.094;6.760;2023-01-04T02:37:34;101573.03;;;7.04;100.00
70015;BME280;57358;51.094;6.760;2023-01-04T02:40:26;101601.13;;;7.30;100.00
70015;BME280;57358;51.094;6.760;2023-01-04T02:43:03;101591.31;;;7.39;100.00
70015;BME280;57358;51.094;6.760;2023-01-04T02:45:54;101521.22;;;6.87;100.00
70015;BME280;57358;51.094;6.760;2023-01-04T02:48:24;101584.19;;;7.46;100.00
70015;BME280;57358;51.094;6.760;2023-01-04T02:51:26;101444.06;;;6.41;100.00
70015;BME280;57358;51.094;6.760;2023-01-04T02:53:55;101490.28;;;6.71;100.00
70015;BME280;57358;51.094;6.760;2023-01-04T03:02:15;101527.56;;;7.48;100.00
70015;BME280;57358;51.094;6.760;2023-01-04T03:05:14;101571.16;;;7.79;100.00
70015;BME280;57358;51.094;6.760;2023-01-04T03:11:05;101530.47;;;7.70;100.00
70015;BME280;57358;51.094;6.760;2023-01-04T03:14:03;101575.63;;;8.07;100.00
70015;BME280;57358;51.094;6.760;2023-01-04T03:16:53;101491.16;;;7.73;100.00
70015;BME280;57358;51.094;6.760;2023-01-04T03:19:23;101572.69;;;8.19;100.00
70015;BME280;57358;51.094;6.760;2023-01-04T03:22:13;101542.00;;;7.94;100.00
70015;BME280;57358;51.094;6.760;2023-01-04T03:25:00;101575.13;;;8.25;100.00
70015;BME280;57358;51.094;6.760;2023-01-04T03:27:50;101568.63;;;8.38;100.00
70015;BME280;57358;51.094;6.760;2023-01-04T03:30:44;101513.72;;;8.09;100.00
70015;BME280;57358;51.094;6.760;2023-01-04T03:33:31;101539.19;;;8.32;100.00
70015;BME280;57358;51.094;6.760;2023-01-04T03:36:27;101564.56;;;8.59;100.00
70015;BME280;57358;51.094;6.760;2023-01-04T03:45:19;101563.13;;;8.77;100.00
70015;BME280;57358;51.094;6.760;2023-01-04T03:48:15;101529.47;;;8.67;100.00
70015;BME280;57358;51.094;6.760;2023-01-04T03:51:12;101535.38;;;8.72;100.00
70015;BME280;57358;51.094;6.760;2023-01-04T03:53:57;101556.81;;;8.85;100.00
70015;BME280;57358;51.094;6.760;2023-01-04T03:56:27;101365.09;;;7.67;100.00
70015;BME280;57358;51.094;6.760;2023-01-04T03:58:54;101526.88;;;8.65;100.00
70015;BME280;57358;51.094;6.760;2023-01-04T04:01:23;101561.06;;;8.89;100.00
70015;BME280;57358;51.094;6.760;2023-01-04T04:03:51;101515.72;;;8.88;100.00
70015;BME280;57358;51.094;6.760;2023-01-04T04:06:36;101538.72;;;9.05;100.00
70015;BME280;57358;51.094;6.760;2023-01-04T04:09:21;101536.94;;;9.06;100.00
70015;BME280;57358;51.094;6.760;2023-01-04T04:11:48;101534.41;;;9.04;100.00
70015;BME280;57358;51.094;6.760;2023-01-04T04:14:14;101354.44;;;8.03;100.00
70015;BME280;57358;51.094;6.760;2023-01-04T04:16:41;101540.47;;;9.05;100.00
70015;BME280;57358;51.094;6.760;2023-01-04T04:19:07;101530.97;;;9.02;100.00
70015;BME280;57358;51.094;6.760;2023-01-04T04:21:35;101533.84;;;9.21;100.00
70015;BME280;57358;51.094;6.760;2023-01-04T04:24:01;101439.03;;;8.58;100.00
70015;BME280;57358;51.094;6.760;2023-01-04T04:26:28;101539.13;;;9.19;100.00
70015;BME280;57358;51.094;6.760;2023-01-04T04:28:54;101443.53;;;8.53;100.00
70015;BME280;57358;51.094;6.760;2023-01-04T04:31:20;101511.06;;;8.96;100.00
70015;BME280;57358;51.094;6.760;2023-01-04T04:33:47;101531.56;;;9.10;100.00
70015;BME280;57358;51.094;6.760;2023-01-04T04:36:13;101443.34;;;8.59;100.00
70015;BME280;57358;51.094;6.760;2023-01-04T04:38:40;101318.31;;;7.87;100.00
70015;BME280;57358;51.094;6.760;2023-01-04T04:41:11;101434.81;;;8.54;100.00
70015;BME280;57358;51.094;6.760;2023-01-04T04:43:57;101524.16;;;9.23;100.00
70015;BME280;57358;51.094;6.760;2023-01-04T04:46:24;101281.22;;;7.76;100.00
70015;BME280;57358;51.094;6.760;2023-01-04T04:48:50;101505.88;;;9.22;100.00
70015;BME280;57358;51.094;6.760;2023-01-04T04:51:17;101517.28;;;9.21;100.00
70015;BME280;57358;51.094;6.760;2023-01-04T04:53:43;101332.34;;;8.11;100.00
70015;BME280;57358;51.094;6.760;2023-01-04T04:56:10;101489.34;;;9.19;100.00
70015;BME280;57358;51.094;6.760;2023-01-04T04:58:37;101480.31;;;9.03;100.00
70015;BME280;57358;51.094;6.760;2023-01-04T05:01:04;101287.88;;;7.86;100.00
70015;BME280;57358;51.094;6.760;2023-01-04T05:03:30;101449.38;;;8.88;100.00
70015;BME280;57358;51.094;6.760;2023-01-04T05:05:57;101420.91;;;8.78;100.00
70015;BME280;57358;51.094;6.760;2023-01-04T05:08:43;101394.41;;;8.63;100.00
70015;BME280;57358;51.094;6.760;2023-01-04T05:11:11;101500.00;;;9.40;100.00
70015;BME280;57358;51.094;6.760;2023-01-04T05:13:38;101391.41;;;8.73;100.00
70015;BME280;57358;51.094;6.760;2023-01-04T05:16:05;101410.50;;;8.77;100.00
70015;BME280;57358;51.094;6.760;2023-01-04T05:18:32;101414.34;;;8.92;100.00
70015;BME280;57358;51.094;6.760;2023-01-04T05:20:59;101489.69;;;9.35;100.00
70015;BME280;57358;51.094;6.760;2023-01-04T05:23:28;101408.75;;;9.03;100.00
70015;BME280;57358;51.094;6.760;2023-01-04T05:25:59;101471.34;;;9.35;100.00
70015;BME280;57358;51.094;6.760;2023-01-04T05:28:27;101378.25;;;8.76;100.00
70015;BME280;57358;51.094;6.760;2023-01-04T05:30:53;101490.94;;;9.50;100.00
70015;BME280;57358;51.094;6.760;2023-01-04T05:33:26;101478.25;;;9.38;100.00
70015;BME280;57358;51.094;6.760;2023-01-04T05:35:54;101418.53;;;8.97;100.00
70015;BME280;57358;51.094;6.760;2023-01-04T05:38:22;101480.25;;;9.56;100.00
70015;BME280;57358;51.094;6.760;2023-01-04T05:40:49;101406.03;;;9.06;100.00
70015;BME280;57358;51.094;6.760;2023-01-04T05:43:16;101480.13;;;9.59;100.00
70015;BME280;57358;51.094;6.760;2023-01-04T05:45:47;101320.28;;;8.62;100.00
70015;BME280;57358;51.094;6.760;2023-01-04T05:48:14;101229.59;;;8.09;100.00
70015;BME280;57358;51.094;6.760;2023-01-04T05:50:41;101272.91;;;8.45;100.00
70015;BME280;57358;51.094;6.760;2023-01-04T05:53:07;101378.50;;;9.19;100.00
70015;BME280;57358;51.094;6.760;2023-01-04T05:55:34;101450.50;;;9.57;100.00
70015;BME280;57358;51.094;6.760;2023-01-04T05:58:00;101398.81;;;9.37;100.00
70015;BME280;57358;51.094;6.760;2023-01-04T06:00:26;101332.84;;;9.03;100.00
70015;BME280;57358;51.094;6.760;2023-01-04T06:02:55;101427.84;;;9.56;100.00
70015;BME280;57358;51.094;6.760;2023-01-04T06:05:23;101335.25;;;9.09;100.00
70015;BME280;57358;51.094;6.760;2023-01-04T06:07:50;101346.78;;;9.28;100.00
70015;BME280;57358;51.094;6.760;2023-01-04T06:10:17;101424.88;;;9.89;100.00
70015;BME280;57358;51.094;6.760;2023-01-04T06:12:47;101310.13;;;9.03;100.00
70015;BME280;57358;51.094;6.760;2023-01-04T06:15:14;101403.88;;;9.66;100.00
70015;BME280;57358;51.094;6.760;2023-01-04T06:17:40;101398.50;;;9.70;100.00
70015;BME280;57358;51.094;6.760;2023-01-04T06:20:08;101305.00;;;9.24;100.00
70015;BME280;57358;51.094;6.760;2023-01-04T06:22:38;101430.81;;;9.94;100.00
70015;BME280;57358;51.094;6.760;2023-01-04T06:25:06;101418.50;;;9.73;100.00
70015;BME280;57358;51.094;6.760;2023-01-04T06:27:36;101447.56;;;9.90;100.00
70015;BME280;57358;51.094;6.760;2023-01-04T06:30:03;101390.00;;;9.64;100.00
70015;BME280;57358;51.094;6.760;2023-01-04T06:32:30;101312.72;;;9.28;100.00
70015;BME280;57358;51.094;6.760;2023-01-04T06:34:56;101318.25;;;9.44;100.00
70015;BME280;57358;51.094;6.760;2023-01-04T06:37:22;101308.84;;;9.38;100.00
70015;BME280;57358;51.094;6.760;2023-01-04T06:39:49;101286.81;;;9.44;100.00
70015;BME280;57358;51.094;6.760;2023-01-04T06:42:16;101328.81;;;9.65;100.00
70015;BME280;57358;51.094;6.760;2023-01-04T06:45:07;101386.84;;;10.01;100.00
70015;BME280;57358;51.094;6.760;2023-01-04T06:47:37;101339.81;;;9.74;100.00
70015;BME280;57358;51.094;6.760;2023-01-04T06:50:11;101419.66;;;10.11;100.00
70015;BME280;57358;51.094;6.760;2023-01-04T06:52:44;101411.13;;;10.28;100.00
70015;BME280;57358;51.094;6.760;2023-01-04T06:55:24;101426.19;;;10.23;100.00
70015;BME280;57358;51.094;6.760;2023-01-04T06:58:04;101366.84;;;9.98;100.00
70015;BME280;57358;51.094;6.760;2023-01-04T07:00:30;101410.69;;;10.17;100.00
70015;BME280;57358;51.094;6.760;2023-01-04T07:02:57;101407.84;;;10.23;100.00
70015;BME280;57358;51.094;6.760;2023-01-04T07:05:41;101415.81;;;10.20;100.00
70015;BME280;57358;51.094;6.760;2023-01-04T07:08:08;101265.44;;;9.31;100.00
70015;BME280;57358;51.094;6.760;2023-01-04T07:10:34;101303.97;;;9.51;100.00
70015;BME280;57358;51.094;6.760;2023-01-04T07:13:01;101395.75;;;10.19;100.00
70015;BME280;57358;51.094;6.760;2023-01-04T07:15:28;101411.34;;;10.22;100.00
70015;BME280;57358;51.094;6.760;2023-01-04T07:18:06;101405.25;;;10.22;100.00
70015;BME280;57358;51.094;6.760;2023-01-04T07:20:32;101291.94;;;9.69;100.00
70015;BME280;57358;51.094;6.760;2023-01-04T07:22:59;101410.22;;;10.29;100.00
70015;BME280;57358;51.094;6.760;2023-01-04T07:25:25;101377.50;;;10.16;100.00
70015;BME280;57358;51.094;6.760;2023-01-04T07:27:52;101373.84;;;10.20;100.00
70015;BME280;57358;51.094;6.760;2023-01-04T07:30:20;101345.78;;;10.00;100.00
70015;BME280;57358;51.094;6.760;2023-01-04T07:32:48;101359.88;;;10.19;100.00
70015;BME280;57358;51.094;6.760;2023-01-04T07:35:16;101336.09;;;10.02;100.00
70015;BME280;57358;51.094;6.760;2023-01-04T07:37:42;101383.50;;;10.42;100.00
70015;BME280;57358;51.094;6.760;2023-01-04T07:40:10;101292.19;;;9.85;100.00
70015;BME280;57358;51.094;6.760;2023-01-04T07:42:37;101218.69;;;9.44;100.00
70015;BME280;57358;51.094;6.760;2023-01-04T07:45:04;101383.56;;;10.40;100.00
70015;BME280;57358;51.094;6.760;2023-01-04T07:47:31;101377.41;;;10.41;100.00
70015;BME280;57358;51.094;6.760;2023-01-04T07:49:58;101394.06;;;10.40;100.00
70015;BME280;57358;51.094;6.760;2023-01-04T07:52:26;101402.72;;;10.42;100.00
70015;BME280;57358;51.094;6.760;2023-01-04T07:54:52;101401.78;;;10.45;100.00
70015;BME280;57358;51.094;6.760;2023-01-04T07:57:19;101394.84;;;10.42;100.00
70015;BME280;57358;51.094;6.760;2023-01-04T07:59:45;101359.78;;;10.23;100.00
70015;BME280;57358;51.094;6.760;2023-01-04T08:02:12;101395.47;;;10.49;100.00
70015;BME280;57358;51.094;6.760;2023-01-04T08:04:39;101377.63;;;10.36;100.00
70015;BME280;57358;51.094;6.760;2023-01-04T08:07:05;101394.16;;;10.38;100.00
70015;BME280;57358;51.094;6.760;2023-01-04T08:09:32;101310.84;;;9.99;100.00
70015;BME280;57358;51.094;6.760;2023-01-04T08:11:58;101348.53;;;10.19;100.00
70015;BME280;57358;51.094;6.760;2023-01-04T08:14:24;101339.28;;;10.10;100.00
70015;BME280;57358;51.094;6.760;2023-01-04T08:16:51;101382.47;;;10.46;100.00
70015;BME280;57358;51.094;6.760;2023-01-04T08:19:19;101397.13;;;10.51;100.00
70015;BME280;57358;51.094;6.760;2023-01-04T08:21:47;101326.97;;;10.12;100.00
70015;BME280;57358;51.094;6.760;2023-01-04T08:24:15;101323.72;;;10.06;100.00
70015;BME280;57358;51.094;6.760;2023-01-04T08:26:43;101316.28;;;9.95;100.00
70015;BME280;57358;51.094;6.760;2023-01-04T08:29:10;101391.03;;;10.51;100.00
70015;BME280;57358;51.094;6.760;2023-01-04T08:31:38;101341.16;;;10.07;100.00
70015;BME280;57358;51.094;6.760;2023-01-04T08:34:06;101391.94;;;10.50;100.00
70015;BME280;57358;51.094;6.760;2023-01-04T08:36:35;101397.72;;;10.58;100.00
70015;BME280;57358;51.094;6.760;2023-01-04T08:39:09;101404.63;;;10.61;100.00
70015;BME280;57358;51.094;6.760;2023-01-04T08:41:35;101367.41;;;10.51;100.00
70015;BME280;57358;51.094;6.760;2023-01-04T08:44:36;101298.41;;;10.05;100.00
70015;BME280;57358;51.094;6.760;2023-01-04T08:47:02;101392.22;;;10.64;100.00
70015;BME280;57358;51.094;6.760;2023-01-04T08:49:29;101312.41;;;10.26;100.00
70015;BME280;57358;51.094;6.760;2023-01-04T08:51:56;101330.97;;;10.43;100.00
70015;BME280;57358;51.094;6.760;2023-01-04T08:54:22;101336.28;;;10.42;100.00
70015;BME280;57358;51.094;6.760;2023-01-04T08:56:48;101374.50;;;10.69;100.00
70015;BME280;57358;51.094;6.760;2023-01-04T08:59:17;101286.13;;;10.27;100.00
70015;BME280;57358;51.094;6.760;2023-01-04T09:01:44;101324.63;;;10.49;100.00
70015;BME280;57358;51.094;6.760;2023-01-04T09:04:11;101409.06;;;10.81;100.00
70015;BME280;57358;51.094;6.760;2023-01-04T09:06:39;101334.25;;;10.48;100.00
70015;BME280;57358;51.094;6.760;2023-01-04T09:09:05;101377.09;;;10.91;100.00
70015;BME280;57358;51.094;6.760;2023-01-04T09:11:32;101368.94;;;10.97;100.00
70015;BME280;57358;51.094;6.760;2023-01-04T09:13:59;101382.59;;;11.06;100.00
70015;BME280;57358;51.094;6.760;2023-01-04T09:16:33;101364.00;;;10.90;100.00
70015;BME280;57358;51.094;6.760;2023-01-04T09:19:00;101313.34;;;10.67;100.00
70015;BME280;57358;51.094;6.760;2023-01-04T09:21:27;101336.56;;;10.97;100.00
70015;BME280;57358;51.094;6.760;2023-01-04T09:23:55;101351.34;;;11.00;100.00
70015;BME280;57358;51.094;6.760;2023-01-04T09:26:22;101365.44;;;11.17;100.00
70015;BME280;57358;51.094;6.760;2023-01-04T09:28:50;101368.75;;;11.23;100.00
70015;BME280;57358;51.094;6.760;2023-01-04T09:31:20;101250.03;;;10.54;100.00
70015;BME280;57358;51.094;6.760;2023-01-04T09:33:47;101356.22;;;11.28;100.00
70015;BME280;57358;51.094;6.760;2023-01-04T09:36:33;101333.81;;;11.00;100.00
70015;BME280;57358;51.094;6.760;2023-01-04T09:38:59;101335.19;;;11.09;100.00
70015;BME280;57358;51.094;6.760;2023-01-04T09:41:28;101358.66;;;11.32;100.00
70015;BME280;57358;51.094;6.760;2023-01-04T09:49:25;101363.00;;;11.33;100.00
70015;BME280;57358;51.094;6.760;2023-01-04T09:52:05;101332.25;;;11.35;100.00
70015;BME280;57358;51.094;6.760;2023-01-04T09:57:27;101343.31;;;11.42;100.00
70015;BME280;57358;51.094;6.760;2023-01-04T10:00:02;101337.94;;;11.45;100.00
70015;BME280;57358;51.094;6.760;2023-01-04T10:05:26;101314.34;;;11.25;100.00
70015;BME280;57358;51.094;6.760;2023-01-04T10:07:54;101346.88;;;11.41;100.00
70015;BME280;57358;51.094;6.760;2023-01-04T10:10:44;101240.94;;;10.82;100.00
70015;BME280;57358;51.094;6.760;2023-01-04T10:13:21;101326.97;;;11.35;100.00
70015;BME280;57358;51.094;6.760;2023-01-04T10:15:59;101341.03;;;11.34;100.00
70015;BME280;57358;51.094;6.760;2023-01-04T10:18:38;101304.31;;;11.14;100.00
70015;BME280;57358;51.094;6.760;2023-01-04T10:21:37;101303.94;;;11.03;100.00
70015;BME280;57358;51.094;6.760;2023-01-04T10:24:12;101342.25;;;11.27;100.00
70015;BME280;57358;51.094;6.760;2023-01-04T10:26:44;101314.50;;;11.01;100.00
70015;BME280;57358;51.094;6.760;2023-01-04T10:29:34;101318.03;;;11.21;100.00
70015;BME280;57358;51.094;6.760;2023-01-04T10:32:16;101333.06;;;11.17;100.00
70015;BME280;57358;51.094;6.760;2023-01-04T10:34:46;101339.75;;;11.24;100.00
70015;BME280;57358;51.094;6.760;2023-01-04T10:37:23;101336.28;;;11.24;100.00
70015;BME280;57358;51.094;6.760;2023-01-04T10:39:55;101306.81;;;11.17;100.00
70015;BME280;57358;51.094;6.760;2023-01-04T10:42:32;101324.97;;;11.22;100.00
70015;BME280;57358;51.094;6.760;2023-01-04T10:45:23;101303.84;;;11.25;100.00
70015;BME280;57358;51.094;6.760;2023-01-04T10:50:56;101288.91;;;11.25;100.00
70015;BME280;57358;51.094;6.760;2023-01-04T10:53:36;101256.38;;;11.09;100.00
70015;BME280;57358;51.094;6.760;2023-01-04T10:56:19;101278.25;;;11.28;100.00
70015;BME280;57358;51.094;6.760;2023-01-04T11:01:32;101290.13;;;11.37;100.00
70015;BME280;57358;51.094;6.760;2023-01-04T11:07:01;101287.22;;;11.43;100.00
70015;BME280;57358;51.094;6.760;2023-01-04T11:09:58;101257.38;;;11.25;100.00
70015;BME280;57358;51.094;6.760;2023-01-04T11:12:26;101302.22;;;11.41;100.00
70015;BME280;57358;51.094;6.760;2023-01-04T11:14:53;101073.41;;;10.13;100.00
70015;BME280;57358;51.094;6.760;2023-01-04T11:17:20;100880.13;;;8.98;100.00
70015;BME280;57358;51.094;6.760;2023-01-04T11:19:49;101282.09;;;11.40;100.00
70015;BME280;57358;51.094;6.760;2023-01-04T11:22:24;101282.81;;;11.44;100.00
70015;BME280;57358;51.094;6.760;2023-01-04T11:24:58;101253.00;;;11.45;100.00
70015;BME280;57358;51.094;6.760;2023-01-04T11:27:56;101271.88;;;11.53;100.00
70015;BME280;57358;51.094;6.760;2023-01-04T11:30:31;101254.16;;;11.56;100.00
70015;BME280;57358;51.094;6.760;2023-01-04T11:33:07;101246.44;;;11.53;100.00
70015;BME280;57358;51.094;6.760;2023-01-04T11:35:37;101258.28;;;11.62;100.00
70015;BME280;57358;51.094;6.760;2023-01-04T11:38:14;101260.00;;;11.63;100.00
70015;BME280;57358;51.094;6.760;2023-01-04T11:40:41;101253.66;;;11.67;100.00
70015;BME280;57358;51.094;6.760;2023-01-04T11:43:20;101199.06;;;11.36;100.00
70015;BME280;57358;51.094;6.760;2023-01-04T11:46:03;101192.25;;;11.32;100.00
70015;BME280;57358;51.094;6.760;2023-01-04T11:48:39;101241.78;;;11.77;100.00
70015;BME280;57358;51.094;6.760;2023-01-04T11:53:42;101194.00;;;11.50;100.00
70015;BME280;57358;51.094;6.760;2023-01-04T11:56:19;101252.13;;;11.81;100.00
70015;BME280;57358;51.094;6.760;2023-01-04T11:59:11;101226.72;;;11.62;100.00
70015;BME280;57358;51.094;6.760;2023-01-04T12:01:45;101265.22;;;11.82;100.00
70015;BME280;57358;51.094;6.760;2023-01-04T12:04:20;101110.44;;;11.03;100.00
70015;BME280;57358;51.094;6.760;2023-01-04T12:06:54;101180.25;;;11.45;100.00
70015;BME280;57358;51.094;6.760;2023-01-04T12:09:21;101177.75;;;11.42;100.00
70015;BME280;57358;51.094;6.760;2023-01-04T12:11:50;101220.75;;;11.77;100.00
70015;BME280;57358;51.094;6.760;2023-01-04T12:14:23;101243.09;;;11.86;100.00
70015;BME280;57358;51.094;6.760;2023-01-04T12:16:51;101233.25;;;11.91;100.00
70015;BME280;57358;51.094;6.760;2023-01-04T12:19:20;101229.94;;;11.86;100.00
70015;BME280;57358;51.094;6.760;2023-01-04T12:21:50;101238.63;;;11.88;100.00
70015;BME280;57358;51.094;6.760;2023-01-04T12:24:23;101177.03;;;11.57;100.00
70015;BME280;57358;51.094;6.760;2023-01-04T12:26:52;101200.84;;;11.72;100.00
70015;BME280;57358;51.094;6.760;2023-01-04T12:37:00;101108.22;;;11.13;100.00
70015;BME280;57358;51.094;6.760;2023-01-04T12:39:43;101222.81;;;11.71;100.00
70015;BME280;57358;51.094;6.760;2023-01-04T12:42:19;101198.69;;;11.63;100.00
70015;BME280;57358;51.094;6.760;2023-01-04T12:58:00;101157.69;;;11.58;100.00
70015;BME280;57358;51.094;6.760;2023-01-04T13:08:24;101116.38;;;11.43;100.00
70015;BME280;57358;51.094;6.760;2023-01-04T13:10:53;101104.94;;;11.44;100.00
70015;BME280;57358;51.094;6.760;2023-01-04T13:13:27;101185.75;;;11.94;100.00
70015;BME280;57358;51.094;6.760;2023-01-04T13:16:08;101193.06;;;11.88;100.00
70015;BME280;57358;51.094;6.760;2023-01-04T13:18:50;101181.56;;;11.90;100.00
70015;BME280;57358;51.094;6.760;2023-01-04T13:21:33;101186.75;;;11.92;100.00
70015;BME280;57358;51.094;6.760;2023-01-04T13:26:50;101131.78;;;11.51;100.00
70015;BME280;57358;51.094;6.760;2023-01-04T13:29:24;101184.47;;;11.84;100.00
70015;BME280;57358;51.094;6.760;2023-01-04T13:31:56;101016.56;;;10.89;100.00
70015;BME280;57358;51.094;6.760;2023-01-04T13:34:36;101180.72;;;11.90;100.00
70015;BME280;57358;51.094;6.760;2023-01-04T13:37:13;101124.88;;;11.48;100.00
70015;BME280;57358;51.094;6.760;2023-01-04T13:39:46;100988.03;;;10.82;100.00
70015;BME280;57358;51.094;6.760;2023-01-04T13:42:29;101171.75;;;11.94;100.00
70015;BME280;57358;51.094;6.760;2023-01-04T13:48:03;101186.75;;;11.92;100.00
70015;BME280;57358;51.094;6.760;2023-01-04T13:50:41;100920.59;;;10.47;100.00
70015;BME280;57358;51.094;6.760;2023-01-04T13:53:23;101192.66;;;11.97;100.00
70015;BME280;57358;51.094;6.760;2023-01-04T13:55:55;101147.03;;;11.79;100.00
70015;BME280;57358;51.094;6.760;2023-01-04T13:58:27;101177.78;;;11.96;100.00
70015;BME280;57358;51.094;6.760;2023-01-04T14:00:56;101146.47;;;11.91;100.00
70015;BME280;57358;51.094;6.760;2023-01-04T14:03:28;101135.81;;;11.75;100.00
70015;BME280;57358;51.094;6.760;2023-01-04T14:06:18;101179.69;;;11.92;100.00
70015;BME280;57358;51.094;6.760;2023-01-04T14:08:53;101167.56;;;11.90;100.00
70015;BME280;57358;51.094;6.760;2023-01-04T14:11:42;101115.00;;;11.53;100.00
70015;BME280;57358;51.094;6.760;2023-01-04T14:15:04;101155.91;;;11.95;100.00
70015;BME280;57358;51.094;6.760;2023-01-04T14:17:52;101142.81;;;11.94;100.00
70015;BME280;57358;51.094;6.760;2023-01-04T14:30:45;101062.44;;;11.53;100.00
70015;BME280;57358;51.094;6.760;2023-01-04T14:36:02;101093.13;;;11.53;100.00
70015;BME280;57358;51.094;6.760;2023-01-04T14:38:29;101074.44;;;11.59;100.00
70015;BME280;57358;51.094;6.760;2023-01-04T14:40:56;101139.78;;;12.02;100.00
70015;BME280;57358;51.094;6.760;2023-01-04T14:43:35;101043.56;;;11.45;100.00
70015;BME280;57358;51.094;6.760;2023-01-04T14:46:01;101155.56;;;12.19;100.00
70015;BME280;57358;51.094;6.760;2023-01-04T14:48:29;101158.28;;;12.17;100.00
70015;BME280;57358;51.094;6.760;2023-01-04T14:50:57;101141.47;;;12.20;100.00
70015;BME280;57358;51.094;6.760;2023-01-04T14:53:24;101020.09;;;11.25;100.00